createdAt,value
2023-02-05T00:00:26.885Z,100975.63
2023-02-05T00:01:29.914Z,100980.02
2023-02-05T00:02:33.018Z,100977.47
2023-02-05T00:03:37.875Z,100973.93
2023-02-05T00:04:40.959Z,100976.80
2023-02-05T00:05:43.977Z,100977.79
2023-02-05T00:06:47.101Z,100978.78
2023-02-05T00:07:50.187Z,100978.08
2023-02-05T00:08:53.316Z,100972.02
2023-02-05T00:09:56.454Z,100974.85
2023-02-05T00:11:01.545Z,100973.47
2023-02-05T00:12:04.790Z,100972.09
2023-02-05T00:13:08.507Z,100969.69
2023-02-05T00:14:11.671Z,100972.52
2023-02-05T00:15:14.741Z,100966.14
2023-02-05T00:16:20.616Z,100962.61
2023-02-05T00:17:23.755Z,100975.20
2023-02-05T00:18:26.714Z,100975.38
2023-02-05T00:19:29.678Z,100975.66
2023-02-05T00:20:32.821Z,100974.28
2023-02-05T00:21:35.983Z,100978.09
2023-02-05T00:22:38.939Z,100979.13
2023-02-05T00:23:42.618Z,100976.58
2023-02-05T00:24:45.562Z,100976.71
2023-02-05T00:25:48.535Z,100979.41
2023-02-05T00:26:51.709Z,100977.88
2023-02-05T00:27:54.729Z,100977.03
2023-02-05T00:28:57.841Z,100971.79
2023-02-05T00:30:00.945Z,100977.17
2023-02-05T00:31:10.742Z,100968.39
2023-02-05T00:32:13.790Z,100970.23
2023-02-05T00:33:16.933Z,100974.80
2023-02-05T00:34:20.010Z,100969.55
2023-02-05T00:35:23.101Z,100977.62
2023-02-05T00:36:26.963Z,100982.15
2023-02-05T00:37:30.063Z,100979.46
2023-02-05T00:38:33.507Z,100977.62
2023-02-05T00:39:36.587Z,100982.15
2023-02-05T00:40:39.798Z,100978.75
2023-02-05T00:41:44.781Z,100974.36
2023-02-05T00:42:47.964Z,100988.83
2023-02-05T00:43:51.334Z,100983.59
2023-02-05T00:44:54.379Z,100980.19
2023-02-05T00:45:57.475Z,100978.66
2023-02-05T00:47:00.696Z,100984.18
2023-02-05T00:48:05.467Z,100982.48
2023-02-05T00:49:08.636Z,100979.93
2023-02-05T00:50:12.308Z,100975.72
2023-02-05T00:51:15.361Z,100983.07
2023-02-05T00:52:18.522Z,100988.75
2023-02-05T00:53:23.170Z,100984.37
2023-02-05T00:54:26.536Z,100987.19
2023-02-05T00:55:29.887Z,100990.87
2023-02-05T00:56:32.955Z,100997.27
2023-02-05T00:57:36.308Z,100991.04
2023-02-05T00:58:39.444Z,100992.87
2023-02-05T00:59:42.499Z,100989.20
2023-02-05T01:00:46.092Z,100990.19
2023-02-05T01:01:49.231Z,100985.94
2023-02-05T01:02:53.381Z,100995.02
2023-02-05T01:03:56.460Z,100984.55
2023-02-05T01:04:59.521Z,100994.58
2023-02-05T01:06:02.788Z,100990.50
2023-02-05T01:07:05.992Z,100991.49
2023-02-05T01:08:10.727Z,100993.33
2023-02-05T01:09:13.835Z,100989.82
2023-02-05T01:10:18.802Z,100996.02
2023-02-05T01:11:21.880Z,100990.64
2023-02-05T01:12:26.118Z,100989.82
2023-02-05T01:13:29.309Z,100988.97
2023-02-05T01:14:32.518Z,100995.47
2023-02-05T01:15:36.010Z,100991.25
2023-02-05T01:16:39.355Z,100994.08
2023-02-05T01:17:42.719Z,100995.91
2023-02-05T01:18:45.883Z,100990.54
2023-02-05T01:19:48.951Z,100996.77
2023-02-05T01:20:52.161Z,100995.91
2023-02-05T01:21:55.389Z,101002.27
2023-02-05T01:22:58.612Z,100994.52
2023-02-05T01:24:01.939Z,101000.88
2023-02-05T01:25:05.740Z,100999.17
2023-02-05T01:26:09.160Z,100998.46
2023-02-05T01:27:12.406Z,101004.69
2023-02-05T01:28:15.380Z,100999.62
2023-02-05T01:29:18.434Z,100999.89
2023-02-05T01:30:22.034Z,101005.43
2023-02-05T01:31:26.979Z,101007.27
2023-02-05T01:32:30.214Z,101005.70
2023-02-05T01:33:33.278Z,101002.33
2023-02-05T01:34:36.788Z,101008.69
2023-02-05T01:35:41.684Z,101008.82
2023-02-05T01:36:45.274Z,101008.95
2023-02-05T01:37:48.356Z,101008.95
2023-02-05T01:38:53.211Z,101006.13
2023-02-05T01:39:56.319Z,101010.52
2023-02-05T01:40:59.520Z,101013.75
2023-02-05T01:42:04.909Z,101012.63
2023-02-05T01:43:16.345Z,101008.97
2023-02-05T01:44:23.863Z,101016.00
2023-02-05T01:45:32.131Z,101005.43
2023-02-05T01:46:37.846Z,101007.40
2023-02-05T01:47:40.897Z,101018.14
2023-02-05T01:48:47.646Z,101011.92
2023-02-05T01:49:52.698Z,101011.06
2023-02-05T01:50:59.463Z,101007.53
2023-02-05T01:52:09.006Z,101012.91
2023-02-05T01:53:15.714Z,101013.89
2023-02-05T01:54:22.225Z,101014.91
2023-02-05T01:55:26.536Z,101021.27
2023-02-05T01:56:42.200Z,101017.73
2023-02-05T01:57:46.500Z,101022.11
2023-02-05T01:58:56.164Z,101016.74
2023-02-05T01:59:59.361Z,101020.41
2023-02-05T02:01:02.449Z,101022.38
2023-02-05T02:02:06.704Z,101018.84
2023-02-05T02:03:13.252Z,101020.68
2023-02-05T02:04:23.019Z,101020.84
2023-02-05T02:05:26.182Z,101018.84
2023-02-05T02:06:29.224Z,101021.40
2023-02-05T02:07:32.373Z,101024.80
2023-02-05T02:08:35.554Z,101026.33
2023-02-05T02:09:40.750Z,101030.72
2023-02-05T02:10:45.855Z,101029.60
2023-02-05T02:11:49.092Z,101028.58
2023-02-05T02:12:54.010Z,101032.97
2023-02-05T02:13:59.177Z,101027.59
2023-02-05T02:15:05.871Z,101038.20
2023-02-05T02:16:09.889Z,101028.31
2023-02-05T02:17:16.056Z,101031.72
2023-02-05T02:18:26.110Z,101031.72
2023-02-05T02:19:42.075Z,101028.18
2023-02-05T02:20:48.136Z,101028.31
2023-02-05T02:22:31.219Z,101029.30
2023-02-05T02:24:02.502Z,101037.36
2023-02-05T02:25:32.316Z,101041.88
2023-02-05T02:26:55.454Z,101037.80
2023-02-05T02:28:11.010Z,101034.55
2023-02-05T02:29:23.863Z,101044.58
2023-02-05T02:30:36.708Z,101043.02
2023-02-05T02:31:46.146Z,101048.55
2023-02-05T02:32:55.525Z,101044.30
2023-02-05T02:34:07.744Z,101043.45
2023-02-05T02:35:26.538Z,101044.44
2023-02-05T02:36:36.050Z,101045.45
2023-02-05T02:37:45.674Z,101049.12
2023-02-05T02:39:16.526Z,101041.20
2023-02-05T02:40:25.982Z,101041.91
2023-02-05T02:41:45.005Z,101046.98
2023-02-05T02:43:00.915Z,101047.84
2023-02-05T02:44:13.867Z,101046.72
2023-02-05T02:45:19.142Z,101043.02
2023-02-05T02:46:34.776Z,101049.10
2023-02-05T02:47:41.807Z,101045.30
2023-02-05T02:48:47.600Z,101040.61
2023-02-05T02:49:54.334Z,101042.31
2023-02-05T02:50:59.500Z,101039.33
2023-02-05T02:52:06.289Z,101036.50
2023-02-05T02:53:12.987Z,101038.07
2023-02-05T02:54:19.030Z,101042.30
2023-02-05T02:55:24.257Z,101042.16
2023-02-05T02:56:29.874Z,101042.02
2023-02-05T02:57:35.075Z,101041.85
2023-02-05T02:58:41.717Z,101046.23
2023-02-05T02:59:47.032Z,101047.94
2023-02-05T03:00:52.359Z,101051.34
2023-02-05T03:01:59.031Z,101050.36
2023-02-05T03:03:05.777Z,101043.97
2023-02-05T03:04:15.405Z,101050.49
2023-02-05T03:05:22.021Z,101050.77
2023-02-05T03:06:27.624Z,101052.05
2023-02-05T03:07:42.615Z,101053.89
2023-02-05T03:08:49.317Z,101053.20
2023-02-05T03:10:02.894Z,101057.55
2023-02-05T03:11:12.559Z,101054.73
2023-02-05T03:12:15.967Z,101052.77
2023-02-05T03:13:19.418Z,101052.59
2023-02-05T03:14:24.520Z,101060.39
2023-02-05T03:15:27.707Z,101058.42
2023-02-05T03:16:32.221Z,101060.80
2023-02-05T03:17:36.511Z,101059.81
2023-02-05T03:18:40.475Z,101059.68
2023-02-05T03:19:44.752Z,101060.50
2023-02-05T03:20:51.508Z,101065.05
2023-02-05T03:21:58.301Z,101065.19
2023-02-05T03:23:01.447Z,101054.58
2023-02-05T03:24:04.968Z,101059.10
2023-02-05T03:25:08.709Z,101060.94
2023-02-05T03:26:24.803Z,101058.12
2023-02-05T03:27:28.388Z,101067.87
2023-02-05T03:28:31.702Z,101060.67
2023-02-05T03:29:38.725Z,101066.89
2023-02-05T03:30:59.853Z,101062.37
2023-02-05T03:32:24.734Z,101066.72
2023-02-05T03:33:44.025Z,101068.29
2023-02-05T03:35:02.834Z,101067.13
2023-02-05T03:36:18.645Z,101061.48
2023-02-05T03:37:40.128Z,101068.39
2023-02-05T03:38:55.727Z,101068.26
2023-02-05T03:40:05.500Z,101066.42
2023-02-05T03:41:18.136Z,101072.78
2023-02-05T03:42:30.777Z,101072.95
2023-02-05T03:43:40.306Z,101072.23
2023-02-05T03:45:04.748Z,101075.91
2023-02-05T03:46:34.758Z,101071.69
2023-02-05T03:47:47.290Z,101074.78
2023-02-05T03:48:57.156Z,101075.94
2023-02-05T03:50:12.989Z,101072.53
2023-02-05T03:52:47.467Z,101076.63
2023-02-05T03:54:05.920Z,101081.01
2023-02-05T03:55:21.481Z,101074.37
2023-02-05T03:56:40.871Z,101073.94
2023-02-05T03:58:02.380Z,101075.34
2023-02-05T03:59:06.553Z,101073.06
2023-02-05T04:00:11.845Z,101068.39
2023-02-05T04:01:19.886Z,101072.62
2023-02-05T04:02:23.993Z,101068.80
2023-02-05T04:03:27.128Z,101073.02
2023-02-05T04:04:30.837Z,101066.52
2023-02-05T04:05:34.273Z,101072.75
2023-02-05T04:06:38.888Z,101072.75
2023-02-05T04:07:42.010Z,101070.06
2023-02-05T04:08:45.816Z,101072.89
2023-02-05T04:09:48.908Z,101074.02
2023-02-05T04:10:52.059Z,101077.00
2023-02-05T04:11:55.136Z,101078.98
2023-02-05T04:12:58.460Z,101078.30
2023-02-05T04:14:01.910Z,101080.14
2023-02-05T04:15:07.690Z,101080.98
2023-02-05T04:16:12.177Z,101074.63
2023-02-05T04:17:15.440Z,101080.00
2023-02-05T04:18:19.002Z,101082.69
2023-02-05T04:19:22.207Z,101084.66
2023-02-05T04:20:25.511Z,101083.27
2023-02-05T04:21:28.772Z,101084.25
2023-02-05T04:22:31.862Z,101078.33
2023-02-05T04:23:34.996Z,101078.47
2023-02-05T04:24:38.233Z,101088.50
2023-02-05T04:25:41.763Z,101095.02
2023-02-05T04:26:45.458Z,101080.87
2023-02-05T04:27:49.397Z,101087.23
2023-02-05T04:28:52.435Z,101082.70
2023-02-05T04:29:56.232Z,101088.94
2023-02-05T04:30:59.857Z,101088.94
2023-02-05T04:32:03.207Z,101088.94
2023-02-05T04:33:06.288Z,101093.45
2023-02-05T04:34:09.623Z,101097.13
2023-02-05T04:35:14.007Z,101087.37
2023-02-05T04:36:17.690Z,101090.91
2023-02-05T04:37:21.077Z,101090.91
2023-02-05T04:38:24.361Z,101098.70
2023-02-05T04:39:27.669Z,101100.23
2023-02-05T04:40:30.931Z,101098.98
2023-02-05T04:41:34.117Z,101096.97
2023-02-05T04:42:37.091Z,101096.70
2023-02-05T04:43:40.053Z,101090.17
2023-02-05T04:44:43.246Z,101101.64
2023-02-05T04:45:46.427Z,101096.12
2023-02-05T04:46:49.934Z,101096.80
2023-02-05T04:47:52.968Z,101099.36
2023-02-05T04:48:56.017Z,101098.37
2023-02-05T04:49:59.208Z,101099.22
2023-02-05T04:51:09.770Z,101100.76
2023-02-05T04:52:12.951Z,101101.61
2023-02-05T04:53:16.016Z,101098.64
2023-02-05T04:54:19.146Z,101100.48
2023-02-05T04:55:22.225Z,101098.48
2023-02-05T04:56:25.387Z,101099.47
2023-02-05T04:57:30.586Z,101098.48
2023-02-05T04:58:33.703Z,101100.17
2023-02-05T04:59:36.752Z,101095.66
2023-02-05T05:00:40.089Z,101098.20
2023-02-05T05:01:43.368Z,101100.72
2023-02-05T05:02:46.405Z,101108.52
2023-02-05T05:03:49.733Z,101110.22
2023-02-05T05:04:52.822Z,101110.22
2023-02-05T05:05:55.963Z,101112.73
2023-02-05T05:06:59.111Z,101115.59
2023-02-05T05:08:02.128Z,101121.96
2023-02-05T05:09:05.169Z,101121.96
2023-02-05T05:10:08.889Z,101120.97
2023-02-05T05:11:14.383Z,101127.20
2023-02-05T05:12:17.472Z,101127.34
2023-02-05T05:13:20.442Z,101124.92
2023-02-05T05:14:23.434Z,101121.69
2023-02-05T05:15:26.393Z,101120.28
2023-02-05T05:16:29.694Z,101126.95
2023-02-05T05:17:33.829Z,101127.09
2023-02-05T05:18:37.542Z,101131.61
2023-02-05T05:19:40.704Z,101135.16
2023-02-05T05:20:44.082Z,101125.94
2023-02-05T05:21:47.130Z,101135.56
2023-02-05T05:22:50.226Z,101136.97
2023-02-05T05:23:53.452Z,101131.31
2023-02-05T05:24:56.511Z,101133.84
2023-02-05T05:25:59.678Z,101136.25
2023-02-05T05:27:02.865Z,101138.94
2023-02-05T05:28:05.949Z,101140.78
2023-02-05T05:29:11.792Z,101148.98
2023-02-05T05:30:15.195Z,101147.28
2023-02-05T05:31:19.330Z,101148.30
2023-02-05T05:32:22.518Z,101144.89
2023-02-05T05:33:26.933Z,101143.33
2023-02-05T05:34:30.032Z,101148.02
2023-02-05T05:35:34.099Z,101149.01
2023-02-05T05:36:39.412Z,101149.86
2023-02-05T05:37:42.366Z,101148.16
2023-02-05T05:38:45.426Z,101152.69
2023-02-05T05:40:06.863Z,101150.84
2023-02-05T05:41:37.686Z,101150.98
2023-02-05T05:42:59.244Z,101150.00
2023-02-05T05:44:02.349Z,101149.86
2023-02-05T05:45:05.848Z,101154.08
2023-02-05T05:46:09.031Z,101150.27
2023-02-05T05:47:11.983Z,101153.51
2023-02-05T05:48:15.273Z,101154.09
2023-02-05T05:49:18.233Z,101157.62
2023-02-05T05:50:21.249Z,101166.68
2023-02-05T05:51:26.336Z,101161.30
2023-02-05T05:52:32.092Z,101155.08
2023-02-05T05:53:34.143Z,101160.45
2023-02-05T05:54:37.408Z,101159.60
2023-02-05T05:55:41.455Z,101166.95
2023-02-05T05:56:44.641Z,101160.89
2023-02-05T05:57:47.664Z,101160.17
2023-02-05T05:58:51.039Z,101162.02
2023-02-05T05:59:53.988Z,101159.45
2023-02-05T06:00:57.107Z,101159.33
2023-02-05T06:02:01.870Z,101163.00
2023-02-05T06:03:05.089Z,101159.45
2023-02-05T06:04:08.335Z,101154.80
2023-02-05T06:05:11.629Z,101168.79
2023-02-05T06:06:14.996Z,101158.61
2023-02-05T06:07:17.931Z,101164.54
2023-02-05T06:08:21.030Z,101163.41
2023-02-05T06:09:24.539Z,101159.57
2023-02-05T06:10:27.531Z,101165.53
2023-02-05T06:11:30.633Z,101167.91
2023-02-05T06:12:33.586Z,101162.39
2023-02-05T06:13:36.937Z,101162.09
2023-02-05T06:14:39.947Z,101166.48
2023-02-05T06:15:43.140Z,101169.31
2023-02-05T06:16:46.374Z,101167.78
2023-02-05T06:17:49.411Z,101161.82
2023-02-05T06:18:53.092Z,101158.45
2023-02-05T06:19:56.236Z,101167.64
2023-02-05T06:20:59.476Z,101165.25
2023-02-05T06:22:03.132Z,101167.23
2023-02-05T06:23:06.204Z,101167.53
2023-02-05T06:24:09.268Z,101169.64
2023-02-05T06:25:12.646Z,101168.95
2023-02-05T06:26:16.220Z,101170.92
2023-02-05T06:27:19.198Z,101171.91
2023-02-05T06:28:22.450Z,101168.55
2023-02-05T06:29:25.426Z,101169.53
2023-02-05T06:30:28.756Z,101177.59
2023-02-05T06:31:31.815Z,101169.66
2023-02-05T06:32:34.811Z,101167.83
2023-02-05T06:33:37.936Z,101165.14
2023-02-05T06:34:40.909Z,101170.52
2023-02-05T06:35:43.946Z,101171.23
2023-02-05T06:36:47.301Z,101171.78
2023-02-05T06:37:50.378Z,101164.12
2023-02-05T06:38:53.490Z,101173.45
2023-02-05T06:39:56.780Z,101169.48
2023-02-05T06:40:59.845Z,101166.52
2023-02-05T06:42:03.385Z,101172.58
2023-02-05T06:43:06.637Z,101163.52
2023-02-05T06:44:10.101Z,101172.17
2023-02-05T06:45:13.505Z,101164.10
2023-02-05T06:46:16.958Z,101164.92
2023-02-05T06:47:19.961Z,101172.98
2023-02-05T06:48:22.941Z,101166.63
2023-02-05T06:49:26.037Z,101165.50
2023-02-05T06:50:29.090Z,101171.72
2023-02-05T06:51:32.232Z,101174.24
2023-02-05T06:52:35.415Z,101171.42
2023-02-05T06:53:38.497Z,101174.83
2023-02-05T06:54:43.038Z,101179.22
2023-02-05T06:55:46.168Z,101178.36
2023-02-05T06:56:49.301Z,101178.20
2023-02-05T06:57:52.179Z,101172.67
2023-02-05T06:58:55.298Z,101179.63
2023-02-05T06:59:58.431Z,101180.71
2023-02-05T07:01:02.407Z,101180.71
2023-02-05T07:02:06.369Z,101175.50
2023-02-05T07:03:09.523Z,101180.71
2023-02-05T07:04:12.447Z,101182.41
2023-02-05T07:05:15.466Z,101180.71
2023-02-05T07:06:18.742Z,101186.09
2023-02-05T07:07:21.987Z,101183.57
2023-02-05T07:08:24.962Z,101189.23
2023-02-05T07:09:28.051Z,101183.30
2023-02-05T07:10:31.458Z,101179.89
2023-02-05T07:11:34.566Z,101183.58
2023-02-05T07:12:37.650Z,101180.88
2023-02-05T07:13:40.718Z,101181.91
2023-02-05T07:14:43.804Z,101179.48
2023-02-05T07:15:46.974Z,101174.41
2023-02-05T07:16:50.189Z,101178.23
2023-02-05T07:17:53.285Z,101182.08
2023-02-05T07:18:57.553Z,101183.91
2023-02-05T07:20:00.749Z,101192.12
2023-02-05T07:21:09.346Z,101183.50
2023-02-05T07:22:16.063Z,101188.47
2023-02-05T07:23:19.068Z,101188.61
2023-02-05T07:24:22.044Z,101179.69
2023-02-05T07:25:25.167Z,101187.03
2023-02-05T07:26:28.117Z,101194.12
2023-02-05T07:27:31.301Z,101187.62
2023-02-05T07:28:34.250Z,101187.31
2023-02-05T07:29:37.197Z,101188.72
2023-02-05T07:30:40.404Z,101198.34
2023-02-05T07:31:43.467Z,101192.97
2023-02-05T07:32:46.572Z,101195.52
2023-02-05T07:33:49.700Z,101201.31
2023-02-05T07:34:52.880Z,101194.64
2023-02-05T07:35:55.795Z,101198.59
2023-02-05T07:36:58.909Z,101200.70
2023-02-05T07:38:02.089Z,101202.95
2023-02-05T07:39:05.158Z,101201.65
2023-02-05T07:40:09.348Z,101201.38
2023-02-05T07:41:14.656Z,101203.63
2023-02-05T07:42:17.836Z,101202.46
2023-02-05T07:43:22.705Z,101199.36
2023-02-05T07:44:25.826Z,101204.97
2023-02-05T07:45:29.035Z,101201.86
2023-02-05T07:46:32.417Z,101205.95
2023-02-05T07:47:35.635Z,101199.25
2023-02-05T07:48:38.805Z,101205.04
2023-02-05T07:49:41.887Z,101210.14
2023-02-05T07:50:45.086Z,101208.84
2023-02-05T07:51:48.251Z,101211.39
2023-02-05T07:52:51.206Z,101208.39
2023-02-05T07:53:54.327Z,101202.01
2023-02-05T07:54:57.289Z,101208.11
2023-02-05T07:56:04.175Z,101209.64
2023-02-05T07:57:07.325Z,101210.03
2023-02-05T07:58:10.389Z,101199.66
2023-02-05T07:59:13.469Z,101208.98
2023-02-05T08:00:17.287Z,101204.69
2023-02-05T08:01:20.399Z,101206.78
2023-02-05T08:02:23.655Z,101206.31
2023-02-05T08:03:26.653Z,101205.18
2023-02-05T08:04:29.822Z,101204.86
2023-02-05T08:05:33.034Z,101210.11
2023-02-05T08:06:36.164Z,101211.80
2023-02-05T08:07:39.221Z,101204.54
2023-02-05T08:08:42.339Z,101205.39
2023-02-05T08:09:45.509Z,101212.34
2023-02-05T08:10:58.137Z,101212.02
2023-02-05T08:12:01.253Z,101207.33
2023-02-05T08:13:04.335Z,101215.80
2023-02-05T08:14:07.341Z,101212.64
2023-02-05T08:15:10.809Z,101215.72
2023-02-05T08:16:15.812Z,101209.89
2023-02-05T08:17:19.074Z,101200.63
2023-02-05T08:18:22.684Z,101209.25
2023-02-05T08:19:25.711Z,101199.87
2023-02-05T08:20:28.709Z,101206.64
2023-02-05T08:21:31.946Z,101204.47
2023-02-05T08:22:37.157Z,101207.02
2023-02-05T08:23:40.423Z,101206.87
2023-02-05T08:24:43.535Z,101209.56
2023-02-05T08:25:46.641Z,101211.09
2023-02-05T08:26:50.241Z,101209.09
2023-02-05T08:27:53.224Z,101216.86
2023-02-05T08:28:56.397Z,101214.02
2023-02-05T08:29:59.482Z,101211.47
2023-02-05T08:31:11.743Z,101214.34
2023-02-05T08:32:14.795Z,101213.49
2023-02-05T08:33:18.653Z,101209.80
2023-02-05T08:34:21.784Z,101217.56
2023-02-05T08:35:25.399Z,101209.99
2023-02-05T08:36:28.906Z,101204.30
2023-02-05T08:37:32.296Z,101209.38
2023-02-05T08:38:35.274Z,101212.63
2023-02-05T08:39:38.345Z,101217.84
2023-02-05T08:40:41.427Z,101217.55
2023-02-05T08:41:44.399Z,101220.76
2023-02-05T08:42:49.308Z,101220.47
2023-02-05T08:43:52.398Z,101218.44
2023-02-05T08:44:57.390Z,101216.44
2023-02-05T08:46:00.589Z,101217.10
2023-02-05T08:47:03.868Z,101216.95
2023-02-05T08:48:06.812Z,101215.26
2023-02-05T08:49:09.769Z,101214.59
2023-02-05T08:50:13.368Z,101222.50
2023-02-05T08:51:18.695Z,101216.11
2023-02-05T08:52:21.764Z,101222.05
2023-02-05T08:53:24.947Z,101211.92
2023-02-05T08:54:28.339Z,101212.48
2023-02-05T08:55:31.764Z,101207.59
2023-02-05T08:56:35.399Z,101209.14
2023-02-05T08:57:38.762Z,101210.66
2023-02-05T08:58:42.333Z,101207.81
2023-02-05T08:59:45.367Z,101210.17
2023-02-05T09:00:48.623Z,101200.08
2023-02-05T09:01:51.756Z,101205.14
2023-02-05T09:02:54.825Z,101207.54
2023-02-05T09:03:57.953Z,101206.36
2023-02-05T09:05:08.906Z,101206.05
2023-02-05T09:06:08.272Z,101206.72
2023-02-05T09:07:11.446Z,101205.56
2023-02-05T09:08:14.797Z,101211.48
2023-02-05T09:09:18.130Z,101208.47
2023-02-05T09:10:21.408Z,101206.28
2023-02-05T09:11:27.988Z,101207.83
2023-02-05T09:12:30.958Z,101211.20
2023-02-05T09:13:34.588Z,101214.59
2023-02-05T09:14:38.860Z,101209.03
2023-02-05T09:15:43.424Z,101211.40
2023-02-05T09:16:46.553Z,101215.80
2023-02-05T09:17:49.702Z,101214.95
2023-02-05T09:18:59.574Z,101216.80
2023-02-05T09:20:03.604Z,101213.10
2023-02-05T09:21:08.170Z,101214.95
2023-02-05T09:22:12.391Z,101219.66
2023-02-05T09:23:17.253Z,101214.44
2023-02-05T09:24:20.274Z,101215.29
2023-02-05T09:25:23.775Z,101225.06
2023-02-05T09:26:27.414Z,101217.66
2023-02-05T09:27:30.598Z,101220.36
2023-02-05T09:28:33.820Z,101217.80
2023-02-05T09:29:37.060Z,101219.66
2023-02-05T09:30:43.435Z,101219.84
2023-02-05T09:31:46.663Z,101216.95
2023-02-05T09:32:50.149Z,101215.80
2023-02-05T09:33:55.145Z,101216.50
2023-02-05T09:34:58.297Z,101222.56
2023-02-05T09:37:21.988Z,101219.08
2023-02-05T09:38:25.065Z,101218.37
2023-02-05T09:40:16.528Z,101223.62
2023-02-05T09:40:44.669Z,101225.31
2023-02-05T09:42:13.239Z,101219.73
2023-02-05T09:43:23.153Z,101220.42
2023-02-05T09:44:51.132Z,101219.42
2023-02-05T09:46:03.848Z,101217.41
2023-02-05T09:47:19.648Z,101213.67
2023-02-05T09:48:51.437Z,101225.33
2023-02-05T09:50:06.113Z,101224.67
2023-02-05T09:51:12.653Z,101222.97
2023-02-05T09:52:29.044Z,101224.13
2023-02-05T09:53:36.025Z,101221.61
2023-02-05T09:54:42.772Z,101226.16
2023-02-05T09:55:47.089Z,101214.32
2023-02-05T09:56:52.644Z,101219.73
2023-02-05T09:58:01.988Z,101221.27
2023-02-05T09:59:05.950Z,101218.41
2023-02-05T10:00:22.476Z,101216.56
2023-02-05T10:01:37.832Z,101215.87
2023-02-05T10:02:59.603Z,101217.20
2023-02-05T10:04:05.415Z,101217.20
2023-02-05T10:05:14.309Z,101219.06
2023-02-05T10:06:57.180Z,101219.06
2023-02-05T10:08:15.644Z,101217.02
2023-02-05T10:09:38.860Z,101214.17
2023-02-05T10:10:47.822Z,101218.91
2023-02-05T10:11:54.498Z,101218.52
2023-02-05T10:13:17.627Z,101220.41
2023-02-05T10:14:49.191Z,101218.70
2023-02-05T10:16:04.277Z,101219.71
2023-02-05T10:17:27.974Z,101217.50
2023-02-05T10:19:03.229Z,101215.29
2023-02-05T10:20:43.410Z,101215.75
2023-02-05T10:22:01.935Z,101219.28
2023-02-05T10:23:29.904Z,101211.66
2023-02-05T10:24:57.602Z,101211.30
2023-02-05T10:26:12.498Z,101210.45
2023-02-05T10:27:24.025Z,101215.85
2023-02-05T10:29:05.725Z,101209.75
2023-02-05T10:30:29.460Z,101216.16
2023-02-05T10:31:52.835Z,101214.64
2023-02-05T10:33:05.136Z,101222.19
2023-02-05T10:34:44.788Z,101220.67
2023-02-05T10:36:03.246Z,101215.42
2023-02-05T10:37:18.526Z,101216.91
2023-02-05T10:38:24.636Z,101217.06
2023-02-05T10:39:30.037Z,101220.95
2023-02-05T10:40:38.716Z,101222.42
2023-02-05T10:41:51.242Z,101221.20
2023-02-05T10:43:14.155Z,101225.20
2023-02-05T10:44:35.626Z,101221.83
2023-02-05T10:45:39.112Z,101235.33
2023-02-05T10:46:45.189Z,101221.31
2023-02-05T10:48:08.094Z,101216.91
2023-02-05T10:49:18.141Z,101220.47
2023-02-05T10:50:55.522Z,101227.53
2023-02-05T10:51:58.506Z,101216.91
2023-02-05T10:53:01.525Z,101214.14
2023-02-05T10:54:05.790Z,101210.07
2023-02-05T10:55:13.727Z,101225.41
2023-02-05T10:56:18.762Z,101220.86
2023-02-05T10:57:23.433Z,101221.72
2023-02-05T10:58:32.957Z,101219.86
2023-02-05T10:59:39.514Z,101220.72
2023-02-05T11:00:42.801Z,101220.72
2023-02-05T11:01:46.487Z,101217.84
2023-02-05T11:02:54.294Z,101216.84
2023-02-05T11:04:06.940Z,101220.09
2023-02-05T11:05:19.676Z,101220.76
2023-02-05T11:06:25.925Z,101220.76
2023-02-05T11:08:48.377Z,101222.20
2023-02-05T11:09:51.349Z,101224.31
2023-02-05T11:10:54.332Z,101228.86
2023-02-05T11:12:06.470Z,101229.56
2023-02-05T11:13:21.620Z,101226.86
2023-02-05T11:14:38.898Z,101237.33
2023-02-05T11:15:54.497Z,101236.18
2023-02-05T11:16:58.151Z,101235.18
2023-02-05T11:18:06.943Z,101238.40
2023-02-05T11:19:28.671Z,101239.09
2023-02-05T11:20:34.964Z,101236.07
2023-02-05T11:21:50.705Z,101235.92
2023-02-05T11:23:08.974Z,101230.34
2023-02-05T11:24:34.001Z,101244.23
2023-02-05T11:25:38.791Z,101232.26
2023-02-05T11:26:42.174Z,101240.87
2023-02-05T11:27:59.723Z,101232.78
2023-02-05T11:29:06.350Z,101231.78
2023-02-05T11:31:37.239Z,101228.41
2023-02-05T11:32:40.210Z,101241.91
2023-02-05T11:33:43.489Z,101233.81
2023-02-05T11:34:46.620Z,101241.06
2023-02-05T11:36:02.300Z,101235.81
2023-02-05T11:37:05.565Z,101245.06
2023-02-05T11:38:11.918Z,101238.98
2023-02-05T11:39:24.567Z,101240.84
2023-02-05T11:40:30.561Z,101244.54
2023-02-05T11:41:38.316Z,101233.74
2023-02-05T11:42:44.877Z,101244.39
2023-02-05T11:43:52.461Z,101242.55
2023-02-05T11:44:58.630Z,101246.23
2023-02-05T11:46:05.431Z,101239.84
2023-02-05T11:47:08.918Z,101239.66
2023-02-05T11:49:38.191Z,101250.11
2023-02-05T11:50:43.542Z,101249.05
2023-02-05T11:51:51.172Z,101252.62
2023-02-05T11:52:56.014Z,101252.62
2023-02-05T11:54:02.050Z,101251.14
2023-02-05T11:55:07.674Z,101251.69
2023-02-05T11:56:14.851Z,101250.02
2023-02-05T11:57:21.391Z,101250.02
2023-02-05T11:58:36.813Z,101253.27
2023-02-05T11:59:38.753Z,101254.78
2023-02-05T12:02:29.867Z,101259.59
2023-02-05T12:03:34.797Z,101254.32
2023-02-05T12:04:41.323Z,101261.39
2023-02-05T12:05:50.469Z,101259.73
2023-02-05T12:06:57.494Z,101257.17
2023-02-05T12:08:19.311Z,101257.48
2023-02-05T12:09:24.748Z,101255.81
2023-02-05T12:10:36.224Z,101256.63
2023-02-05T12:12:00.391Z,101262.89
2023-02-05T12:13:09.668Z,101246.86
2023-02-05T12:14:34.280Z,101257.66
2023-02-05T12:15:43.613Z,101253.11
2023-02-05T12:16:59.299Z,101262.37
2023-02-05T12:18:18.104Z,101255.42
2023-02-05T12:19:33.920Z,101262.01
2023-02-05T12:20:43.356Z,101259.30
2023-02-05T12:21:52.678Z,101259.30
2023-02-05T12:23:16.770Z,101256.61
2023-02-05T12:24:47.749Z,101254.60
2023-02-05T12:26:18.271Z,101262.70
2023-02-05T12:27:33.885Z,101262.01
2023-02-05T12:28:49.100Z,101261.16
2023-02-05T12:30:04.480Z,101263.02
2023-02-05T12:31:17.642Z,101264.70
2023-02-05T12:32:44.575Z,101265.56
2023-02-05T12:34:07.601Z,101263.16
2023-02-05T12:35:14.277Z,101264.65
2023-02-05T12:36:23.850Z,101265.98
2023-02-05T12:37:38.606Z,101267.16
2023-02-05T12:38:50.986Z,101262.77
2023-02-05T12:40:00.318Z,101265.47
2023-02-05T12:41:26.381Z,101268.02
2023-02-05T12:42:33.239Z,101263.28
2023-02-05T12:43:42.627Z,101263.98
2023-02-05T12:44:57.878Z,101268.38
2023-02-05T12:46:19.623Z,101267.34
2023-02-05T12:47:32.430Z,101269.05
2023-02-05T12:48:51.339Z,101266.34
2023-02-05T12:50:03.860Z,101268.38
2023-02-05T12:51:13.796Z,101274.41
2023-02-05T12:52:43.192Z,101273.34